createdAt,value
2023-05-25T00:01:05.646Z,11.13
2023-05-25T00:03:33.081Z,10.98
2023-05-25T00:06:04.175Z,12.30
2023-05-25T00:08:31.374Z,13.93
2023-05-25T00:10:58.948Z,9.93
2023-05-25T00:13:26.145Z,11.73
2023-05-25T00:15:53.227Z,10.30
2023-05-25T00:18:20.312Z,11.65
2023-05-25T00:20:47.899Z,10.90
2023-05-25T00:23:15.167Z,10.38
2023-05-25T00:25:42.811Z,11.20
2023-05-25T00:28:12.175Z,11.52
2023-05-25T00:30:39.569Z,12.23
2023-05-25T00:33:06.775Z,12.35
2023-05-25T00:35:33.885Z,13.35
2023-05-25T00:38:01.058Z,14.25
2023-05-25T00:40:28.223Z,12.85
2023-05-25T00:42:56.389Z,14.63
2023-05-25T00:45:23.429Z,14.27
2023-05-25T00:47:54.504Z,10.88
2023-05-25T00:50:38.319Z,11.98
2023-05-25T00:53:06.916Z,12.68
2023-05-25T00:55:44.599Z,13.93
2023-05-25T00:58:13.543Z,12.80
2023-05-25T01:00:43.131Z,14.55
2023-05-25T01:03:18.082Z,14.98
2023-05-25T01:05:48.455Z,15.75
2023-05-25T01:08:20.164Z,13.35
2023-05-25T01:10:50.144Z,13.00
2023-05-25T01:13:20.329Z,19.65
2023-05-25T01:15:48.873Z,14.65
2023-05-25T01:18:17.064Z,14.80
2023-05-25T01:21:18.392Z,13.60
2023-05-25T01:23:59.119Z,16.52
2023-05-25T01:26:29.563Z,24.02
2023-05-25T01:28:58.617Z,17.13
2023-05-25T01:31:25.780Z,15.65
2023-05-25T01:33:55.049Z,14.48
2023-05-25T01:36:22.251Z,14.52
2023-05-25T01:38:50.167Z,13.68
2023-05-25T01:41:17.228Z,17.05
2023-05-25T01:43:45.607Z,16.85
2023-05-25T01:46:23.771Z,12.55
2023-05-25T01:49:09.173Z,13.95
2023-05-25T01:51:48.260Z,15.75
2023-05-25T01:54:26.062Z,14.75
2023-05-25T01:56:54.778Z,12.90
2023-05-25T01:59:23.268Z,16.27
2023-05-25T02:01:53.460Z,14.63
2023-05-25T02:04:23.028Z,15.05
2023-05-25T02:06:52.206Z,13.07
2023-05-25T02:09:19.371Z,13.68
2023-05-25T02:11:46.481Z,14.30
2023-05-25T02:14:14.133Z,16.42
2023-05-25T02:16:41.211Z,13.20
2023-05-25T02:19:08.401Z,14.23
2023-05-25T02:21:37.231Z,16.65
2023-05-25T02:24:04.594Z,16.30
2023-05-25T02:26:31.724Z,14.55
2023-05-25T02:28:58.818Z,18.08
2023-05-25T02:31:26.076Z,15.10
2023-05-25T02:33:53.203Z,13.10
2023-05-25T02:36:20.311Z,15.20
2023-05-25T02:38:49.990Z,16.48
2023-05-25T02:41:17.179Z,15.65
2023-05-25T02:43:44.362Z,15.80
2023-05-25T02:46:11.453Z,20.23
2023-05-25T02:48:38.585Z,14.65
2023-05-25T02:51:05.630Z,13.48
2023-05-25T02:53:32.680Z,15.18
2023-05-25T02:56:00.389Z,14.13
2023-05-25T02:58:27.761Z,14.43
2023-05-25T03:00:56.043Z,17.08
2023-05-25T03:03:23.197Z,16.02
2023-05-25T03:05:50.714Z,13.77
2023-05-25T03:08:18.449Z,18.92
2023-05-25T03:10:45.935Z,14.30
2023-05-25T03:13:13.043Z,14.52
2023-05-25T03:15:40.567Z,16.55
2023-05-25T03:18:07.682Z,14.95
2023-05-25T03:20:35.016Z,18.55
2023-05-25T03:23:02.274Z,16.73
2023-05-25T03:25:29.385Z,15.35
2023-05-25T03:27:56.545Z,13.65
2023-05-25T03:30:23.958Z,16.95
2023-05-25T03:32:51.212Z,18.27
2023-05-25T03:35:18.654Z,16.15
2023-05-25T03:37:45.868Z,14.50
2023-05-25T03:40:13.132Z,13.70
2023-05-25T03:42:40.181Z,13.52
2023-05-25T03:45:09.375Z,17.95
2023-05-25T03:47:37.353Z,13.75
2023-05-25T03:50:07.157Z,14.02
2023-05-25T03:52:34.465Z,18.80
2023-05-25T03:55:05.535Z,16.85
2023-05-25T03:57:32.584Z,18.35
2023-05-25T03:59:59.663Z,21.55
2023-05-25T04:02:26.722Z,20.35
2023-05-25T04:04:53.934Z,20.25
2023-05-25T04:07:21.094Z,16.80
2023-05-25T04:09:48.194Z,19.52
2023-05-25T04:12:15.246Z,20.67
2023-05-25T04:14:42.807Z,16.52
2023-05-25T04:17:09.865Z,19.98
2023-05-25T04:19:36.873Z,15.57
2023-05-25T04:22:04.475Z,21.02
2023-05-25T04:24:32.743Z,17.58
2023-05-25T04:27:00.213Z,15.85
2023-05-25T04:29:27.297Z,14.50
2023-05-25T04:31:54.942Z,17.95
2023-05-25T04:34:22.084Z,17.60
2023-05-25T04:36:49.750Z,12.90
2023-05-25T04:39:16.871Z,18.05
2023-05-25T04:41:44.326Z,14.45
2023-05-25T04:44:11.572Z,14.38
2023-05-25T04:46:39.379Z,20.10
2023-05-25T04:49:08.736Z,16.55
2023-05-25T04:51:37.297Z,15.02
2023-05-25T04:54:04.542Z,15.00
2023-05-25T04:56:31.588Z,14.02
2023-05-25T04:58:58.622Z,15.02
2023-05-25T05:01:26.553Z,17.08
2023-05-25T05:03:53.774Z,15.90
2023-05-25T05:06:21.863Z,16.48
2023-05-25T05:08:48.875Z,13.80
2023-05-25T05:11:16.078Z,17.40
2023-05-25T05:13:43.086Z,15.35
2023-05-25T05:16:10.167Z,11.55
2023-05-25T05:18:37.248Z,19.98
2023-05-25T05:21:04.423Z,15.90
2023-05-25T05:23:31.520Z,14.60
2023-05-25T05:25:58.562Z,15.23
2023-05-25T05:28:27.581Z,17.58
2023-05-25T05:30:54.568Z,13.98
2023-05-25T05:33:22.035Z,13.73
2023-05-25T05:35:49.240Z,20.40
2023-05-25T05:38:16.383Z,16.05
2023-05-25T05:40:43.448Z,13.32
2023-05-25T05:43:14.499Z,15.02
2023-05-25T05:45:41.738Z,17.55
2023-05-25T05:48:10.128Z,16.25
2023-05-25T05:50:40.345Z,12.43
2023-05-25T05:53:10.170Z,15.50
2023-05-25T05:55:37.223Z,11.20
2023-05-25T05:58:04.345Z,11.98
2023-05-25T06:00:32.084Z,15.82
2023-05-25T06:03:01.159Z,14.93
2023-05-25T06:05:28.471Z,14.40
2023-05-25T06:07:55.977Z,14.82
2023-05-25T06:10:23.354Z,12.07
2023-05-25T06:12:50.484Z,14.45
2023-05-25T06:15:17.634Z,14.63
2023-05-25T06:17:44.878Z,15.45
2023-05-25T06:20:12.197Z,16.35
2023-05-25T06:22:39.230Z,11.27
2023-05-25T06:25:06.752Z,12.77
2023-05-25T06:27:33.902Z,13.05
2023-05-25T06:30:00.959Z,15.15
2023-05-25T06:32:28.049Z,16.70
2023-05-25T06:34:55.552Z,10.18
2023-05-25T06:37:22.669Z,11.65
2023-05-25T06:39:49.770Z,13.38
2023-05-25T06:42:16.789Z,13.55
2023-05-25T06:44:43.870Z,16.67
2023-05-25T06:47:10.995Z,9.95
2023-05-25T06:49:38.075Z,14.45
2023-05-25T06:52:05.867Z,11.15
2023-05-25T06:54:33.320Z,13.73
2023-05-25T06:57:00.330Z,12.95
2023-05-25T06:59:27.479Z,9.88
2023-05-25T07:01:56.347Z,12.40
2023-05-25T07:04:23.779Z,9.97
2023-05-25T07:06:52.226Z,12.90
2023-05-25T07:09:19.221Z,20.53
2023-05-25T07:11:46.492Z,12.73
2023-05-25T07:14:13.581Z,9.70
2023-05-25T07:16:40.771Z,13.07
2023-05-25T07:19:08.200Z,14.47
2023-05-25T07:21:35.289Z,10.20
2023-05-25T07:24:02.676Z,11.23
2023-05-25T07:26:31.949Z,13.40
2023-05-25T07:28:59.972Z,15.02
2023-05-25T07:31:27.273Z,13.40
2023-05-25T07:33:55.784Z,12.07
2023-05-25T07:36:24.995Z,10.70
2023-05-25T07:38:52.800Z,9.00
2023-05-25T07:41:19.807Z,11.17
2023-05-25T07:43:47.014Z,10.90
2023-05-25T07:46:14.048Z,14.10
2023-05-25T07:48:41.066Z,9.70
2023-05-25T07:51:08.728Z,10.90
2023-05-25T07:53:35.729Z,12.90
2023-05-25T07:56:02.703Z,9.13
2023-05-25T07:58:29.660Z,15.20
2023-05-25T08:00:56.876Z,10.03
2023-05-25T08:03:31.921Z,8.10
2023-05-25T08:06:03.051Z,8.67
2023-05-25T08:08:30.130Z,12.53
2023-05-25T08:10:57.211Z,10.57
2023-05-25T08:13:24.362Z,9.70
2023-05-25T08:15:51.449Z,10.93
2023-05-25T08:18:19.496Z,10.03
2023-05-25T08:20:47.296Z,11.30
2023-05-25T08:23:14.475Z,7.90
2023-05-25T08:25:41.436Z,12.57
2023-05-25T08:28:08.432Z,9.47
2023-05-25T08:30:35.486Z,9.90
2023-05-25T08:33:02.571Z,10.20
2023-05-25T08:35:29.664Z,9.03
2023-05-25T08:37:56.775Z,10.67
2023-05-25T08:40:28.440Z,11.30
2023-05-25T08:42:55.520Z,11.40
2023-05-25T08:45:34.095Z,12.53
2023-05-25T08:48:04.999Z,10.30
2023-05-25T08:50:33.979Z,11.57
2023-05-25T08:53:05.358Z,8.90
2023-05-25T08:55:36.213Z,10.73
2023-05-25T08:58:07.576Z,8.53
2023-05-25T09:00:59.359Z,10.00
2023-05-25T09:03:27.091Z,9.80
2023-05-25T09:05:56.713Z,10.40
2023-05-25T09:08:25.241Z,10.83
2023-05-25T09:10:54.023Z,10.23
2023-05-25T09:13:22.849Z,8.00
2023-05-25T09:15:50.978Z,8.67
2023-05-25T09:18:18.178Z,8.07
2023-05-25T09:20:47.437Z,10.83
2023-05-25T09:23:16.369Z,7.90
2023-05-25T09:25:45.391Z,7.23
2023-05-25T09:30:42.844Z,10.63
2023-05-25T09:33:14.813Z,10.37
2023-05-25T09:35:41.946Z,9.00
2023-05-25T09:38:09.210Z,8.03
2023-05-25T09:40:38.983Z,8.10
2023-05-25T09:43:06.304Z,14.20
2023-05-25T09:45:33.829Z,13.13
2023-05-25T09:48:01.803Z,15.80
2023-05-25T09:50:29.457Z,8.70
2023-05-25T09:53:00.382Z,9.90
2023-05-25T09:55:39.972Z,8.37
2023-05-25T09:58:13.427Z,12.57
2023-05-25T10:00:40.759Z,8.83
2023-05-25T10:03:08.516Z,10.50
2023-05-25T10:05:35.705Z,9.70
2023-05-25T10:08:03.985Z,15.20
2023-05-25T10:10:31.441Z,10.90
2023-05-25T10:12:59.961Z,7.80
2023-05-25T10:15:27.496Z,9.53
2023-05-25T10:17:55.991Z,9.73
2023-05-25T10:20:29.076Z,7.00
2023-05-25T10:22:57.101Z,10.30
2023-05-25T10:25:33.090Z,8.10
2023-05-25T10:28:05.394Z,9.53
2023-05-25T10:30:33.557Z,12.03
2023-05-25T10:33:03.347Z,8.03
2023-05-25T10:35:35.552Z,8.07
2023-05-25T10:38:06.738Z,8.10
2023-05-25T10:40:35.165Z,7.50
2023-05-25T10:43:02.533Z,8.83
2023-05-25T10:45:30.038Z,9.40
2023-05-25T10:47:58.840Z,7.53
2023-05-25T10:50:27.492Z,8.47
2023-05-25T10:53:07.297Z,7.30
2023-05-25T10:55:54.444Z,9.67
2023-05-25T10:58:24.193Z,10.43
2023-05-25T11:01:06.878Z,8.40
2023-05-25T11:03:56.875Z,11.40
2023-05-25T11:06:46.628Z,8.67
2023-05-25T11:09:27.499Z,9.40
2023-05-25T11:11:56.490Z,8.87
2023-05-25T11:14:28.086Z,8.33
2023-05-25T11:17:15.029Z,7.43
2023-05-25T11:19:51.117Z,10.40
2023-05-25T11:22:31.751Z,7.97
2023-05-25T11:25:00.902Z,7.27
2023-05-25T11:27:32.617Z,12.33
2023-05-25T11:30:00.756Z,9.37
2023-05-25T11:32:28.799Z,9.93
2023-05-25T11:34:58.841Z,8.67
2023-05-25T11:37:31.574Z,8.50
2023-05-25T11:39:59.034Z,7.37
2023-05-25T11:42:26.562Z,9.43
2023-05-25T11:44:53.811Z,10.27
2023-05-25T11:47:24.016Z,11.50
2023-05-25T11:49:51.223Z,9.90
2023-05-25T11:52:20.243Z,9.03
2023-05-25T11:54:47.346Z,7.90
2023-05-25T11:57:25.348Z,7.60
2023-05-25T11:59:54.460Z,6.40
2023-05-25T12:02:22.497Z,8.80
2023-05-25T12:04:58.577Z,10.50
2023-05-25T12:07:27.528Z,9.03
2023-05-25T12:10:13.779Z,8.73
2023-05-25T12:12:42.288Z,9.50
2023-05-25T12:15:12.568Z,7.90
2023-05-25T12:17:43.143Z,8.17
2023-05-25T12:20:12.147Z,10.70
2023-05-25T12:22:40.283Z,8.83
2023-05-25T12:25:10.509Z,8.10
2023-05-25T12:27:38.136Z,10.20
2023-05-25T12:30:07.029Z,7.80
2023-05-25T12:32:34.274Z,7.47
2023-05-25T12:35:05.900Z,7.17
2023-05-25T12:37:34.140Z,8.17
2023-05-25T12:40:01.406Z,14.07
2023-05-25T12:42:31.042Z,8.90
2023-05-25T12:45:00.980Z,8.30
2023-05-25T12:47:30.581Z,8.80
2023-05-25T12:50:16.525Z,7.27
2023-05-25T12:52:46.692Z,7.13
2023-05-25T12:55:20.716Z,9.33
2023-05-25T12:57:52.995Z,7.90
2023-05-25T13:00:28.461Z,8.73
2023-05-25T13:02:55.823Z,7.30
2023-05-25T13:05:28.801Z,12.67
2023-05-25T13:07:58.517Z,8.60
2023-05-25T13:10:26.277Z,6.40
2023-05-25T13:12:55.688Z,8.33
2023-05-25T13:15:22.995Z,6.77
2023-05-25T13:17:51.575Z,5.93
2023-05-25T13:20:20.709Z,10.97
2023-05-25T13:22:50.010Z,8.53
2023-05-25T13:25:17.358Z,8.57
2023-05-25T13:27:47.075Z,10.83
2023-05-25T13:30:14.952Z,7.73
2023-05-25T13:32:46.202Z,11.17
2023-05-25T13:35:37.900Z,7.23
2023-05-25T13:38:05.390Z,6.13
2023-05-25T13:40:32.544Z,10.93
2023-05-25T13:42:59.626Z,8.13
2023-05-25T13:45:26.690Z,9.30
2023-05-25T13:47:53.866Z,6.33
2023-05-25T13:50:20.966Z,7.70
2023-05-25T13:52:49.552Z,7.30
2023-05-25T13:55:16.642Z,6.90
2023-05-25T13:57:43.801Z,6.37
2023-05-25T14:00:11.318Z,7.57
2023-05-25T14:02:38.627Z,9.30
2023-05-25T14:05:06.359Z,6.60
2023-05-25T14:07:33.434Z,9.30
2023-05-25T14:10:00.737Z,8.70
2023-05-25T14:12:28.139Z,6.60
2023-05-25T14:14:55.270Z,7.53
2023-05-25T14:17:22.338Z,8.23
2023-05-25T14:19:49.406Z,13.33
2023-05-25T14:22:16.463Z,7.97
2023-05-25T14:24:43.723Z,9.47
2023-05-25T14:27:10.976Z,7.23
2023-05-25T14:29:38.358Z,10.47
2023-05-25T14:32:05.621Z,8.40
2023-05-25T14:34:32.637Z,6.97
2023-05-25T14:36:59.725Z,8.63
2023-05-25T14:39:26.815Z,6.70
2023-05-25T14:41:53.884Z,7.70
2023-05-25T14:44:21.013Z,8.73
2023-05-25T14:46:48.110Z,11.27
2023-05-25T14:49:16.974Z,7.60
2023-05-25T14:51:44.006Z,5.93
2023-05-25T14:54:13.756Z,8.57
2023-05-25T14:56:41.083Z,8.53
2023-05-25T14:59:08.386Z,9.73
2023-05-25T15:01:36.072Z,6.13
2023-05-25T15:04:04.357Z,6.47
2023-05-25T15:06:35.335Z,7.73
2023-05-25T15:09:02.482Z,7.23
2023-05-25T15:11:29.706Z,9.40
2023-05-25T15:13:58.824Z,6.17
2023-05-25T15:16:26.175Z,6.07
2023-05-25T15:18:53.340Z,7.07
2023-05-25T15:21:20.483Z,7.70
2023-05-25T15:23:47.570Z,6.80
2023-05-25T15:26:14.662Z,7.57
2023-05-25T15:28:41.743Z,6.23
2023-05-25T15:31:08.852Z,7.60
2023-05-25T15:33:48.585Z,8.30
2023-05-25T15:36:19.235Z,7.00
2023-05-25T15:38:49.244Z,7.20
2023-05-25T15:41:17.784Z,8.83
2023-05-25T15:43:58.754Z,8.77
2023-05-25T15:46:26.300Z,7.00
2023-05-25T15:48:54.496Z,6.07
2023-05-25T15:51:22.393Z,8.13
2023-05-25T15:53:49.478Z,10.10
2023-05-25T15:56:16.668Z,7.00
2023-05-25T15:58:47.369Z,6.00
2023-05-25T16:01:14.580Z,9.00
2023-05-25T16:03:43.487Z,8.67
2023-05-25T16:06:11.350Z,8.23
2023-05-25T16:08:38.462Z,6.90
2023-05-25T16:11:05.759Z,7.90
2023-05-25T16:13:32.949Z,10.70
2023-05-25T16:16:00.075Z,8.27
2023-05-25T16:18:27.331Z,8.10
2023-05-25T16:20:58.118Z,9.03
2023-05-25T16:23:25.853Z,8.30
2023-05-25T16:25:52.938Z,11.70
2023-05-25T16:28:20.091Z,8.70
2023-05-25T16:30:47.529Z,8.00
2023-05-25T16:33:14.714Z,7.10
2023-05-25T16:35:42.148Z,7.33
2023-05-25T16:38:09.414Z,8.10
2023-05-25T16:40:37.479Z,7.80
2023-05-25T16:43:04.671Z,7.63
2023-05-25T16:45:31.749Z,7.83
2023-05-25T16:47:58.971Z,9.20
2023-05-25T16:50:26.167Z,7.27
2023-05-25T16:52:53.267Z,6.23
2023-05-25T16:55:20.536Z,7.93
2023-05-25T16:57:47.574Z,10.23
2023-05-25T17:00:15.236Z,6.53
2023-05-25T17:02:42.324Z,7.67
2023-05-25T17:05:10.066Z,7.80
2023-05-25T17:07:38.047Z,8.73
2023-05-25T17:10:07.300Z,9.30
2023-05-25T17:12:34.483Z,10.17
2023-05-25T17:15:01.595Z,7.37
2023-05-25T17:17:29.090Z,7.20
2023-05-25T17:19:56.346Z,6.60
2023-05-25T17:22:23.510Z,8.07
2023-05-25T17:24:50.676Z,7.70
2023-05-25T17:27:17.750Z,7.37
2023-05-25T17:29:45.110Z,7.73
2023-05-25T17:32:12.317Z,7.07
2023-05-25T17:34:39.432Z,7.80
2023-05-25T17:37:06.633Z,6.80
2023-05-25T17:39:33.842Z,7.60
2023-05-25T17:42:01.712Z,8.73
2023-05-25T17:44:29.284Z,8.67
2023-05-25T17:46:56.450Z,7.13
2023-05-25T17:49:23.686Z,8.03
2023-05-25T17:51:50.784Z,7.07
2023-05-25T17:54:20.196Z,12.67
2023-05-25T17:56:48.546Z,11.40
2023-05-25T17:59:15.676Z,10.60
2023-05-25T18:01:42.859Z,11.60
2023-05-25T18:04:10.257Z,11.70
2023-05-25T18:06:37.626Z,12.53
2023-05-25T18:09:04.888Z,7.20
2023-05-25T18:11:33.736Z,7.97
2023-05-25T18:14:00.914Z,12.90
2023-05-25T18:16:27.974Z,15.07
2023-05-25T18:18:55.015Z,10.17
2023-05-25T18:21:22.127Z,10.97
2023-05-25T18:23:49.236Z,11.40
2023-05-25T18:26:16.301Z,10.97
2023-05-25T18:28:43.362Z,13.60
2023-05-25T18:31:10.592Z,11.47
2023-05-25T18:33:37.726Z,13.83
2023-05-25T18:36:04.986Z,7.70
2023-05-25T18:38:32.051Z,12.03
2023-05-25T18:40:59.272Z,10.03
2023-05-25T18:43:26.587Z,8.93
2023-05-25T18:45:53.686Z,7.70
2023-05-25T18:48:21.434Z,8.17
2023-05-25T18:50:48.552Z,7.67
2023-05-25T18:53:15.704Z,7.47
2023-05-25T18:55:42.920Z,8.50
2023-05-25T18:58:10.314Z,9.20
2023-05-25T19:00:37.471Z,7.70
2023-05-25T19:03:05.375Z,8.13
2023-05-25T19:05:32.802Z,9.27
2023-05-25T19:08:00.216Z,11.00
2023-05-25T19:10:27.684Z,7.93
2023-05-25T19:12:54.948Z,9.30
2023-05-25T19:15:22.087Z,10.63
2023-05-25T19:17:49.239Z,10.00
2023-05-25T19:20:16.953Z,8.60
2023-05-25T19:22:44.373Z,8.87
2023-05-25T19:25:11.754Z,9.83
2023-05-25T19:27:38.862Z,12.27
2023-05-25T19:30:06.674Z,8.43
2023-05-25T19:32:33.888Z,9.50
2023-05-25T19:35:01.127Z,9.73
2023-05-25T19:37:28.393Z,10.53
2023-05-25T19:39:55.506Z,8.57
2023-05-25T19:42:22.572Z,11.50
2023-05-25T19:44:49.604Z,9.73
2023-05-25T19:47:16.720Z,8.77
2023-05-25T19:49:43.768Z,9.33
2023-05-25T19:52:10.914Z,11.40
2023-05-25T19:54:38.968Z,11.80
2023-05-25T19:57:06.942Z,14.30
2023-05-25T19:59:34.057Z,12.00
2023-05-25T20:02:01.242Z,12.00
2023-05-25T20:04:28.399Z,9.70
2023-05-25T20:06:55.745Z,9.03
2023-05-25T20:09:30.984Z,12.00
2023-05-25T20:11:58.753Z,9.73
2023-05-25T20:14:26.572Z,11.87
2023-05-25T20:16:56.183Z,10.17
2023-05-25T20:19:23.522Z,9.70
2023-05-25T20:21:50.884Z,12.97
2023-05-25T20:24:18.262Z,9.70
2023-05-25T20:26:45.400Z,12.00
2023-05-25T20:29:12.555Z,10.60
2023-05-25T20:31:40.568Z,11.97
2023-05-25T20:34:07.735Z,11.70
2023-05-25T20:36:34.796Z,11.43
2023-05-25T20:39:03.975Z,13.50
2023-05-25T20:41:31.165Z,10.60
2023-05-25T20:43:58.404Z,12.57
2023-05-25T20:46:26.524Z,13.50
2023-05-25T20:48:53.955Z,11.20
2023-05-25T20:51:22.056Z,13.83
2023-05-25T20:53:49.184Z,11.90
2023-05-25T20:56:16.837Z,12.80
2023-05-25T20:58:44.234Z,11.43
2023-05-25T21:01:11.336Z,14.13
2023-05-25T21:03:39.301Z,15.90
2023-05-25T21:06:06.534Z,12.07
2023-05-25T21:08:34.267Z,11.37
2023-05-25T21:11:01.500Z,13.47
2023-05-25T21:13:28.588Z,12.63
2023-05-25T21:15:56.010Z,13.47
2023-05-25T21:18:23.169Z,11.70
2023-05-25T21:20:50.279Z,12.33
2023-05-25T21:23:17.478Z,14.10
2023-05-25T21:25:45.360Z,11.80
2023-05-25T21:28:12.909Z,12.83
2023-05-25T21:30:39.958Z,12.50
2023-05-25T21:33:07.084Z,15.20
2023-05-25T21:35:34.286Z,11.73
2023-05-25T21:38:01.402Z,12.17
2023-05-25T21:40:28.999Z,14.13
2023-05-25T21:42:56.074Z,14.60
2023-05-25T21:45:23.326Z,11.80
2023-05-25T21:47:50.643Z,12.30
2023-05-25T21:50:17.731Z,11.63
2023-05-25T21:52:44.986Z,11.87
2023-05-25T21:55:12.329Z,12.60
2023-05-25T21:57:39.375Z,14.27
2023-05-25T22:00:07.276Z,12.93
2023-05-25T22:02:34.683Z,12.27
2023-05-25T22:05:01.800Z,12.60
2023-05-25T22:07:28.833Z,12.27
2023-05-25T22:09:56.163Z,13.50
2023-05-25T22:12:23.430Z,12.10
2023-05-25T22:14:50.562Z,12.60
2023-05-25T22:17:19.291Z,12.97
2023-05-25T22:19:55.208Z,14.30
2023-05-25T22:22:22.815Z,13.27
2023-05-25T22:24:49.959Z,20.10
2023-05-25T22:27:16.981Z,12.77
2023-05-25T22:29:44.144Z,13.10
2023-05-25T22:32:11.205Z,12.27
2023-05-25T22:34:38.401Z,13.17
2023-05-25T22:37:05.501Z,13.67
2023-05-25T22:39:32.586Z,12.90
2023-05-25T22:41:59.642Z,13.60
2023-05-25T22:44:26.663Z,14.23
2023-05-25T22:46:53.770Z,12.37
2023-05-25T22:49:20.896Z,13.70
2023-05-25T22:51:47.997Z,12.20
2023-05-25T22:54:15.157Z,16.90
2023-05-25T22:56:42.207Z,13.83
2023-05-25T22:59:09.176Z,12.63
2023-05-25T23:01:36.306Z,14.13
2023-05-25T23:04:03.929Z,15.60
2023-05-25T23:06:32.955Z,14.37
2023-05-25T23:09:00.116Z,16.95
2023-05-25T23:11:27.401Z,15.32
2023-05-25T23:13:55.229Z,16.95
2023-05-25T23:16:22.228Z,16.30
2023-05-25T23:18:49.432Z,17.38
2023-05-25T23:21:16.688Z,15.87
2023-05-25T23:23:43.776Z,16.58
2023-05-25T23:26:10.939Z,15.73
2023-05-25T23:28:37.976Z,19.35
2023-05-25T23:31:05.564Z,18.42
2023-05-25T23:33:32.702Z,17.90
2023-05-25T23:36:00.054Z,15.82
2023-05-25T23:38:27.138Z,14.98
2023-05-25T23:40:54.141Z,17.70
2023-05-25T23:43:21.369Z,18.38
2023-05-25T23:45:48.816Z,22.88
2023-05-25T23:48:16.584Z,21.75
2023-05-25T23:50:43.728Z,16.73
2023-05-25T23:53:10.835Z,17.50
2023-05-25T23:55:37.866Z,15.90
2023-05-25T23:58:05.068Z,16.48
